AirNav   TITAN Aviation Fuels
 
 1147 users online  

6NR6 Patton Valley Airport
Nebo, North Carolina, USA

GOING TO NEBO?


FAA INFORMATION EFFECTIVE 04 NOVEMBER 2021

Location

FAA Identifier: 6NR6
Lat/Long: 35-39-44.0000N 081-52-22.0000W
35-39.733333N 081-52.366667W
35.6622222,-81.8727778
(estimated)
Elevation: 1270 ft. / 387 m (estimated)
From city: 4 miles SW of NEBO, NC
Time zone: UTC -4 (UTC -5 during Standard Time)
Zip code: 28761

Airport Operations

Airport use: Private use. Permission required prior to landing
Activation date: 01/2014
Control tower: no
ARTCC: ATLANTA CENTER
FSS: RALEIGH FLIGHT SERVICE STATION
Attendance: UNATNDD
Wind indicator: yes
Segmented circle: no

Airport Communications

WX AWOS-3 at FQD (14 nm S): 118.275 (828-287-6498)
WX AWOS-3P at MRN (16 nm NE): 124.175 (828-757-0788)

Nearby radio navigation aids

VOR radial/distance  VOR name  Freq  Var
SUGr054/24.7SUGARLOAF MOUNTAIN VORTAC112.2002W
BZMr254/33.2BARRETTS MOUNTAIN VOR/DME113.7506W
SPAr006/37.8SPARTANBURG VORTAC115.7002W

 
NDB name  Hdg/Dist  Freq  Var  ID
FIDDLERS261/10.239107WFIQ ..-. .. --.-
FIRST RIVER337/28.041706WSLP ... .-.. .--.
HEMLOCK181/29.532002WBAR -... .- .-.
BROAD RIVER058/37.437907WBRA -... .-. .-

Airport Services

Runway Information

Runway 2/20

Dimensions: 1250 x 60 ft. / 381 x 18 m
Surface: turf, in good condition
RUNWAY 2  RUNWAY 20
Traffic pattern: leftleft
Obstructions: none60 ft. trees, 30 ft. from runway

Airport Ownership and Management from official FAA records

Ownership: Privately-owned
Owner: DANIEL A SHAPIRO
660 SEDONA DR
NEBO, NC 28761
Phone (828) 413-9011
CELL: 828-413-9011
Manager: DANIEL A SHAPIRO
660 SEDONA DR
NEBO, NC 28761
Phone (828) 413-9011

Airport Operational Statistics

Aircraft based on the field: 3
Single engine airplanes: 2
Ultralights: 1
    

Additional Remarks

FOR CD CTC ATLANTA ARTCC AT 770-210-7692.

Instrument Procedures

There are no published instrument procedures at 6NR6.

Some nearby airports with instrument procedures:

KFQD - Rutherford County Airport/Marchman Field (14 nm S)
KMRN - Foothills Regional Airport (16 nm NE)
KHKY - Hickory Regional Airport (24 nm E)
KEHO - Shelby-Cleveland County Regional Airport (28 nm SE)
KAVL - Asheville Regional Airport (35 nm W)
 
Loc | Ops | Rwys | IFR | FBO | Links
Com | Nav | Svcs | Stats | Notes
Aerial photo
No photo
 
Airport distance calculator
Flying to Patton Valley Airport? Find the distance to fly.

From to 6NR6

Sunrise and sunset
Times for 27-Nov-2021
 Local
(UTC-5)
 Zulu
(UTC)
Morning civil twilight06:4811:48
Sunrise07:1612:16
Sunset17:1422:14
Evening civil twilight17:4222:42

Current date and time
Zulu (UTC)  28-Nov-2021 02:15:58
Local (UTC-5)  27-Nov-2021 21:15:58
 
METAR
KFQD 
15nm S 
280135Z AUTO 15003KT 10SM CLR 07/M04 A3001 RMK AO2
KMRN 
16nm NE 
280155Z AUTO 00000KT 10SM CLR 02/M02 A3001 RMK AO2 T00161021
KHKY 
24nm E 
280153Z AUTO 18003KT 10SM CLR 06/M04 A2998 RMK AO2 SLP146 T00611044
KEHO 
28nm SE 
280155Z AUTO 14003KT 10SM CLR 08/M06 A3001 RMK AO2 T00751056
TAF
KHKY 
24nm E 
271725Z 2718/2818 22006KT P6SM SCT100 FM272300 22004KT P6SM FEW200 FM280800 29003KT P6SM SCT200 FM281500 26005KT P6SM BKN200
NOTAMs
Click for the latest NOTAMs
NOTAMs are issued by the DoD/FAA and will open in a separate window not controlled by AirNav.

 

 
 

Would you like to see your business listed on this page?

 If your business provides an interesting product or service to pilots, flight crews, aircraft, or users of the Patton Valley Airport, you should consider listing it here.  To start the listing process, click on the button below
 
Add a business
 

Other Pages about Patton Valley Airport

Update a link
 
Copyright © AirNav, LLC. All rights reserved. Privacy Policy  Contact